Main page
METAR-TAF:

METAR-TAF

Airports :

El Palomar Airport

El Palomar, Argentina

latitude: 34-36S, longitude: 058-36W, elevation: 18 m

Current weather observation

The report was made 2 hours and 3 minutes ago, at 13:37 UTC
Wind 5 kt from the West/Southwest, varying between South/Southwest and West
Temperature 20°C
Humidity 53%
Pressure 1021 hPa
Visibility 10 km or more
no clouds below 1500 m and no cumulonimbus

METAR: SADP 011337Z 25005KT 210V270 CAVOK 20/10 Q1021

Time: 12:40 (15:40 UTC)


TAF: missing

Weather observations and forecasts of more than 4000 airports (METAR and TAF reports).

The available stations are represented by yellow and red dots on the map.

Hover mouse over dot to see the name of the station.

Then click to see weather observations and forecasts.

To change the map : click on the green buttons with a black cross to zoom in, on the green button with a dash to zoom out, or on the green arrows for adjacent maps.


METAR-TAF: